Time;durP1;ratioP1;P1;durP2;ratioP2;P2;SDS_P1;SDS_P2;PMS_P1;PMS_P2;Temp;Humidity;BMP_temperature;BMP_pressure;BME280_temperature;BME280_humidity;BME280_pressure;Samples;Min_cycle;Max_cycle;Signal;HPM_P1;HPM_P2
2023/08/06 00:00:59;0.00;0.00;0.62;0.00;0.00;0.62;2.30;1.53;;;29.20;30.10;;;;;;2268420;61;20358;-62
2023/08/06 00:03:45;0.00;0.00;0.62;0.00;0.00;0.62;2.10;1.30;;;29.10;30.00;;;;;;2267936;61;20459;-63
2023/08/06 00:06:30;0.00;0.00;0.62;0.00;0.00;0.62;2.00;1.30;;;29.10;30.70;;;;;;2267981;61;20367;-62
2023/08/06 00:09:14;0.00;0.00;0.62;0.00;0.00;0.62;1.50;1.17;;;29.10;30.00;;;;;;2267117;61;20418;-61
2023/08/06 00:11:59;0.00;0.00;0.62;0.00;0.00;0.62;2.00;1.60;;;29.10;30.10;;;;;;2268196;61;20401;-61
2023/08/06 00:14:44;0.00;0.00;0.62;0.00;0.00;0.62;2.07;1.80;;;29.10;30.00;;;;;;2268133;61;20855;-62
2023/08/06 00:17:28;0.00;0.00;0.62;0.00;0.00;0.62;2.57;1.80;;;29.10;30.00;;;;;;2267800;61;20814;-61
2023/08/06 00:20:14;0.00;0.00;0.62;0.00;0.00;0.62;1.90;1.33;;;29.10;30.00;;;;;;2267466;61;20467;-61
2023/08/06 00:22:59;0.00;0.00;0.62;0.00;0.00;0.62;2.60;1.67;;;29.10;30.00;;;;;;2268119;61;20409;-61
2023/08/06 00:25:44;0.00;0.00;0.62;0.00;0.00;0.62;1.77;1.27;;;29.10;30.00;;;;;;2267424;61;20417;-61
2023/08/06 00:28:28;0.00;0.00;0.62;0.00;0.00;0.62;3.20;1.90;;;29.10;30.70;;;;;;2267684;61;20386;-63
2023/08/06 00:31:13;0.00;0.00;0.62;0.00;0.00;0.62;2.10;1.60;;;29.10;30.10;;;;;;2267953;61;20405;-62
2023/08/06 00:33:57;0.00;0.00;0.62;0.00;0.00;0.62;2.83;2.17;;;29.10;30.80;;;;;;2267885;61;20385;-61
2023/08/06 00:36:43;0.00;0.00;0.62;0.00;0.00;0.62;2.07;1.70;;;29.10;30.10;;;;;;2268232;61;20875;-63
2023/08/06 00:39:28;0.00;0.00;0.62;0.00;0.00;0.62;2.03;1.73;;;29.10;30.10;;;;;;2266839;61;20387;-67
2023/08/06 00:42:13;0.00;0.00;0.62;0.00;0.00;0.62;2.23;1.90;;;29.10;30.10;;;;;;2268084;61;20443;-63
2023/08/06 00:44:57;0.00;0.00;0.62;0.00;0.00;0.62;2.20;1.60;;;29.10;30.10;;;;;;2268128;61;20378;-62
2023/08/06 00:47:43;0.00;0.00;0.62;0.00;0.00;0.62;1.90;1.60;;;29.10;30.00;;;;;;2267485;61;20451;-61
2023/08/06 00:50:30;0.00;0.00;0.62;0.00;0.00;0.62;2.73;1.83;;;29.00;30.00;;;;;;2264587;61;20359;-65
2023/08/06 00:53:16;0.00;0.00;0.62;0.00;0.00;0.62;2.33;1.73;;;29.10;30.00;;;;;;2267995;61;20371;-61
2023/08/06 00:56:02;0.00;0.00;0.62;0.00;0.00;0.62;1.90;1.50;;;29.00;30.00;;;;;;2264935;61;20395;-61
2023/08/06 00:58:47;0.00;0.00;0.62;0.00;0.00;0.62;2.00;1.80;;;29.00;30.00;;;;;;2267755;61;20387;-60
2023/08/06 01:01:32;0.00;0.00;0.62;0.00;0.00;0.62;2.20;1.60;;;29.00;30.00;;;;;;2267395;61;20907;-61
2023/08/06 01:04:17;0.00;0.00;0.62;0.00;0.00;0.62;2.37;1.60;;;29.00;30.00;;;;;;2267966;61;20402;-62
2023/08/06 01:07:14;0.00;0.00;0.62;0.00;0.00;0.62;2.30;1.97;;;29.00;30.00;;;;;;2268004;61;20931;-63
2023/08/06 01:10:17;0.00;0.00;0.62;0.00;0.00;0.62;1.87;1.40;;;29.00;30.00;;;;;;2266984;61;20433;-62
2023/08/06 01:13:13;0.00;0.00;0.62;0.00;0.00;0.62;1.90;1.37;;;29.00;30.70;;;;;;2264703;61;20367;-60
2023/08/06 01:16:00;0.00;0.00;0.62;0.00;0.00;0.62;2.10;1.80;;;29.00;30.00;;;;;;2267336;61;20358;-61
2023/08/06 01:18:49;0.00;0.00;0.62;0.00;0.00;0.62;2.30;1.60;;;29.00;30.00;;;;;;2265087;61;20386;-62
2023/08/06 01:21:35;0.00;0.00;0.62;0.00;0.00;0.62;2.00;1.37;;;29.00;30.00;;;;;;2268603;61;21012;-63
2023/08/06 01:24:19;0.00;0.00;0.62;0.00;0.00;0.62;2.47;1.47;;;29.00;30.10;;;;;;2268150;61;20363;-62
2023/08/06 01:27:11;0.00;0.00;0.62;0.00;0.00;0.62;2.30;1.60;;;29.00;30.10;;;;;;2268880;61;20925;-61
2023/08/06 01:30:03;0.00;0.00;0.62;0.00;0.00;0.62;2.00;1.40;;;29.00;30.10;;;;;;2268348;61;20490;-62
2023/08/06 01:32:56;0.00;0.00;0.62;0.00;0.00;0.62;3.20;1.77;;;29.00;30.80;;;;;;2268369;61;20386;-62
2023/08/06 01:35:42;0.00;0.00;0.62;0.00;0.00;0.62;2.60;1.83;;;29.00;30.10;;;;;;2268786;61;20397;-61
2023/08/06 01:38:28;0.00;0.00;0.62;0.00;0.00;0.62;2.10;1.60;;;29.00;30.10;;;;;;2267566;61;20840;-61
2023/08/06 01:41:13;0.00;0.00;0.62;0.00;0.00;0.62;2.77;1.40;;;29.00;30.10;;;;;;2265255;61;20384;-61
2023/08/06 01:43:58;0.00;0.00;0.62;0.00;0.00;0.62;1.80;1.60;;;29.00;30.10;;;;;;2265454;61;20811;-60
2023/08/06 01:46:42;0.00;0.00;0.62;0.00;0.00;0.62;1.83;1.20;;;29.00;30.10;;;;;;2264804;61;20363;-60
2023/08/06 01:49:28;0.00;0.00;0.62;0.00;0.00;0.62;1.80;1.53;;;29.00;30.10;;;;;;2268047;61;20429;-60
2023/08/06 01:52:15;0.00;0.00;0.62;0.00;0.00;0.62;2.30;2.10;;;29.00;30.10;;;;;;2265155;61;20362;-62
2023/08/06 01:55:01;0.00;0.00;0.62;0.00;0.00;0.62;1.90;1.40;;;29.00;30.10;;;;;;2268408;61;20397;-60
2023/08/06 01:57:46;0.00;0.00;0.62;0.00;0.00;0.62;2.03;1.63;;;29.00;30.10;;;;;;2268606;61;20402;-62
2023/08/06 02:00:31;0.00;0.00;0.62;0.00;0.00;0.62;2.67;1.90;;;28.90;30.00;;;;;;2264505;61;20410;-62
2023/08/06 02:03:16;0.00;0.00;0.62;0.00;0.00;0.62;1.80;1.50;;;28.90;30.00;;;;;;2268685;61;20893;-59
2023/08/06 02:06:00;0.00;0.00;0.62;0.00;0.00;0.62;2.53;1.60;;;28.90;30.00;;;;;;2268466;61;20378;-65
2023/08/06 02:08:45;0.00;0.00;0.62;0.00;0.00;0.62;2.00;1.40;;;28.90;30.00;;;;;;2267753;61;20475;-61
2023/08/06 02:11:31;0.00;0.00;0.62;0.00;0.00;0.62;2.00;1.60;;;28.90;30.00;;;;;;2268277;61;20822;-61
2023/08/06 02:14:15;0.00;0.00;0.62;0.00;0.00;0.62;1.83;1.37;;;28.90;30.00;;;;;;2268723;61;20394;-62
2023/08/06 02:17:00;0.00;0.00;0.62;0.00;0.00;0.62;1.80;1.50;;;28.90;30.00;;;;;;2265069;61;20394;-61
2023/08/06 02:19:45;0.00;0.00;0.62;0.00;0.00;0.62;1.80;1.30;;;28.90;30.00;;;;;;2264624;61;20391;-61
2023/08/06 02:22:29;0.00;0.00;0.62;0.00;0.00;0.62;1.90;1.50;;;28.90;30.80;;;;;;2267745;61;20359;-62
2023/08/06 02:25:14;0.00;0.00;0.62;0.00;0.00;0.62;2.27;1.70;;;28.90;30.10;;;;;;2267696;61;20374;-61
2023/08/06 02:28:03;0.00;0.00;0.62;0.00;0.00;0.62;2.57;1.90;;;28.90;30.00;;;;;;2264518;61;20359;-61
2023/08/06 02:30:50;0.00;0.00;0.62;0.00;0.00;0.62;2.77;1.67;;;28.90;30.30;;;;;;2267393;61;20363;-60
2023/08/06 02:33:35;0.00;0.00;0.62;0.00;0.00;0.62;2.00;1.63;;;28.90;30.00;;;;;;2267787;61;20407;-62
2023/08/06 02:36:19;0.00;0.00;0.62;0.00;0.00;0.62;2.17;1.70;;;28.90;30.10;;;;;;2268091;61;20358;-62
2023/08/06 02:39:04;0.00;0.00;0.62;0.00;0.00;0.62;1.70;1.30;;;28.90;30.00;;;;;;2264256;61;20433;-61
2023/08/06 02:41:48;0.00;0.00;0.62;0.00;0.00;0.62;1.80;1.50;;;28.90;30.10;;;;;;2265427;61;20371;-62
2023/08/06 02:44:35;0.00;0.00;0.62;0.00;0.00;0.62;1.70;1.30;;;28.90;30.10;;;;;;2267780;61;20398;-62
2023/08/06 02:47:20;0.00;0.00;0.62;0.00;0.00;0.62;2.10;1.50;;;28.90;30.10;;;;;;2265316;61;20409;-60
2023/08/06 02:50:06;0.00;0.00;0.62;0.00;0.00;0.62;1.87;1.40;;;28.90;30.00;;;;;;2264661;61;20398;-62
2023/08/06 02:52:51;0.00;0.00;0.62;0.00;0.00;0.62;1.93;1.47;;;28.90;30.10;;;;;;2267767;61;20773;-62
2023/08/06 02:55:36;0.00;0.00;0.62;0.00;0.00;0.62;1.80;1.47;;;28.90;30.10;;;;;;2265186;61;20359;-61
2023/08/06 02:58:26;0.00;0.00;0.62;0.00;0.00;0.62;2.37;1.60;;;28.90;30.10;;;;;;2264893;61;20378;-65
2023/08/06 03:01:26;0.00;0.00;0.62;0.00;0.00;0.62;2.37;1.73;;;28.90;30.10;;;;;;2262246;61;20363;-61
2023/08/06 03:04:17;0.00;0.00;0.62;0.00;0.00;0.62;1.97;1.43;;;28.90;30.10;;;;;;2265127;61;20448;-61
2023/08/06 03:07:03;0.00;0.00;0.62;0.00;0.00;0.62;2.53;1.73;;;28.80;30.10;;;;;;2264481;61;20367;-58
2023/08/06 03:09:56;0.00;0.00;0.62;0.00;0.00;0.62;1.50;1.13;;;28.90;30.10;;;;;;2264759;61;20372;-61
2023/08/06 03:12:41;0.00;0.00;0.62;0.00;0.00;0.62;2.37;1.60;;;28.80;30.00;;;;;;2265017;61;20488;-64
2023/08/06 03:15:25;0.00;0.00;0.62;0.00;0.00;0.62;2.00;1.57;;;28.90;30.10;;;;;;2264600;61;20363;-61
2023/08/06 03:18:13;0.00;0.00;0.62;0.00;0.00;0.62;2.30;1.70;;;28.80;30.00;;;;;;2264987;61;20368;-62
2023/08/06 03:20:58;0.00;0.00;0.62;0.00;0.00;0.62;1.87;1.50;;;28.80;30.10;;;;;;2264914;61;20391;-60
2023/08/06 03:23:48;0.00;0.00;0.62;0.00;0.00;0.62;2.40;1.50;;;28.80;30.00;;;;;;2264901;61;20447;-62
2023/08/06 03:26:34;0.00;0.00;0.62;0.00;0.00;0.62;2.07;1.67;;;28.80;30.00;;;;;;2264896;61;20371;-61
2023/08/06 03:29:21;0.00;0.00;0.62;0.00;0.00;0.62;2.50;1.57;;;28.80;30.00;;;;;;2264054;61;20425;-67
2023/08/06 03:32:07;0.00;0.00;0.62;0.00;0.00;0.62;1.77;1.50;;;28.80;30.10;;;;;;2265016;61;20457;-61
2023/08/06 03:34:54;0.00;0.00;0.62;0.00;0.00;0.62;1.97;1.70;;;28.80;30.10;;;;;;2264973;61;20363;-61
2023/08/06 03:37:40;0.00;0.00;0.62;0.00;0.00;0.62;2.17;1.40;;;28.80;30.00;;;;;;2264537;61;20360;-60
2023/08/06 03:40:25;0.00;0.00;0.62;0.00;0.00;0.62;1.60;1.20;;;28.80;30.10;;;;;;2267567;61;20429;-62
2023/08/06 03:43:10;0.00;0.00;0.62;0.00;0.00;0.62;2.00;1.30;;;28.80;30.00;;;;;;2265036;61;20685;-61
2023/08/06 03:45:55;0.00;0.00;0.62;0.00;0.00;0.62;2.27;1.40;;;28.80;30.10;;;;;;2264692;61;20370;-61
2023/08/06 03:48:40;0.00;0.00;0.62;0.00;0.00;0.62;1.80;1.50;;;28.80;30.10;;;;;;2264471;61;20387;-61
2023/08/06 03:51:26;0.00;0.00;0.62;0.00;0.00;0.62;1.87;1.33;;;28.80;30.00;;;;;;2264365;61;20387;-58
2023/08/06 03:54:12;0.00;0.00;0.62;0.00;0.00;0.62;2.50;1.80;;;28.80;30.10;;;;;;2265103;61;20770;-60
2023/08/06 03:56:57;0.00;0.00;0.62;0.00;0.00;0.62;2.47;1.70;;;28.80;30.00;;;;;;2265029;61;20883;-61
2023/08/06 03:59:42;0.00;0.00;0.62;0.00;0.00;0.62;1.90;1.37;;;28.80;30.10;;;;;;2267023;61;20386;-62
2023/08/06 04:02:26;0.00;0.00;0.62;0.00;0.00;0.62;2.20;1.30;;;28.80;30.10;;;;;;2268163;61;20359;-63
2023/08/06 04:05:12;0.00;0.00;0.62;0.00;0.00;0.62;1.77;1.40;;;28.80;30.10;;;;;;2264877;61;20583;-61
2023/08/06 04:07:59;0.00;0.00;0.62;0.00;0.00;0.62;2.23;1.50;;;28.80;30.00;;;;;;2267611;61;20355;-61
2023/08/06 04:10:44;0.00;0.00;0.62;0.00;0.00;0.62;1.97;1.47;;;28.80;30.00;;;;;;2264842;61;20438;-61
2023/08/06 04:13:29;0.00;0.00;0.62;0.00;0.00;0.62;2.10;1.50;;;28.80;30.00;;;;;;2264389;61;20441;-61
2023/08/06 04:16:15;0.00;0.00;0.62;0.00;0.00;0.62;2.00;1.47;;;28.70;30.00;;;;;;2264905;61;20363;-62
2023/08/06 04:19:00;0.00;0.00;0.62;0.00;0.00;0.62;2.40;1.73;;;28.70;30.00;;;;;;2267652;61;20394;-62
2023/08/06 04:21:45;0.00;0.00;0.62;0.00;0.00;0.62;1.73;1.17;;;28.70;30.00;;;;;;2264588;61;20363;-61
2023/08/06 04:24:31;0.00;0.00;0.62;0.00;0.00;0.62;2.03;1.70;;;28.70;30.00;;;;;;2267996;61;20363;-61
2023/08/06 04:27:16;0.00;0.00;0.62;0.00;0.00;0.62;2.10;1.40;;;28.70;30.00;;;;;;2264866;61;20429;-61
2023/08/06 04:30:03;0.00;0.00;0.62;0.00;0.00;0.62;1.70;1.20;;;28.70;30.00;;;;;;2263785;61;20375;-62
2023/08/06 04:32:51;0.00;0.00;0.62;0.00;0.00;0.62;2.83;1.40;;;28.70;30.00;;;;;;2264932;61;20363;-62
2023/08/06 04:35:35;0.00;0.00;0.62;0.00;0.00;0.62;2.33;1.53;;;28.70;30.00;;;;;;2264382;61;20355;-61
2023/08/06 04:38:20;0.00;0.00;0.62;0.00;0.00;0.62;1.80;1.30;;;28.70;30.00;;;;;;2264594;61;20401;-63
2023/08/06 04:41:07;0.00;0.00;0.62;0.00;0.00;0.62;1.77;1.37;;;28.70;30.00;;;;;;2264733;61;20658;-61
2023/08/06 04:43:52;0.00;0.00;0.62;0.00;0.00;0.62;2.30;1.70;;;28.70;30.40;;;;;;2267549;61;20367;-62
2023/08/06 04:46:37;0.00;0.00;0.62;0.00;0.00;0.62;1.90;1.57;;;28.70;30.00;;;;;;2264817;61;20413;-62
2023/08/06 04:49:21;0.00;0.00;0.62;0.00;0.00;0.62;2.33;1.53;;;28.70;30.00;;;;;;2267832;61;20374;-61
2023/08/06 04:52:06;0.00;0.00;0.62;0.00;0.00;0.62;6.30;1.40;;;28.70;30.00;;;;;;2267361;61;20579;-60
2023/08/06 04:54:51;0.00;0.00;0.62;0.00;0.00;0.62;2.00;1.40;;;28.70;30.00;;;;;;2269065;61;20366;-61
2023/08/06 04:57:37;0.00;0.00;0.62;0.00;0.00;0.62;2.10;1.53;;;28.70;30.00;;;;;;2268588;61;21149;-66
2023/08/06 05:00:21;0.00;0.00;0.62;0.00;0.00;0.62;1.70;1.30;;;28.70;30.00;;;;;;2268278;61;20395;-60
2023/08/06 05:03:06;0.00;0.00;0.62;0.00;0.00;0.62;1.70;1.37;;;28.70;30.00;;;;;;2268835;61;20895;-62
2023/08/06 05:05:51;0.00;0.00;0.62;0.00;0.00;0.62;1.83;1.37;;;28.70;30.00;;;;;;2268093;61;20902;-61
2023/08/06 05:08:36;0.00;0.00;0.62;0.00;0.00;0.62;2.83;1.40;;;28.70;30.10;;;;;;2268335;61;20432;-62
2023/08/06 05:11:21;0.00;0.00;0.62;0.00;0.00;0.62;1.90;1.50;;;28.60;30.00;;;;;;2268943;61;20362;-62
2023/08/06 05:14:08;0.00;0.00;0.62;0.00;0.00;0.62;1.87;1.20;;;28.70;30.10;;;;;;2268195;61;20363;-61
2023/08/06 05:16:52;0.00;0.00;0.62;0.00;0.00;0.62;1.90;1.47;;;28.60;30.00;;;;;;2268729;61;20375;-61
2023/08/06 05:19:37;0.00;0.00;0.62;0.00;0.00;0.62;2.20;1.50;;;28.60;30.00;;;;;;2267960;61;20444;-62
2023/08/06 05:22:21;0.00;0.00;0.62;0.00;0.00;0.62;2.30;1.43;;;28.60;30.10;;;;;;2268719;61;20359;-62
2023/08/06 05:25:07;0.00;0.00;0.62;0.00;0.00;0.62;2.23;1.30;;;28.60;30.10;;;;;;2268341;61;20367;-67
2023/08/06 05:27:53;0.00;0.00;0.62;0.00;0.00;0.62;2.73;1.43;;;28.60;30.00;;;;;;2268073;61;20738;-66
2023/08/06 05:30:41;0.00;0.00;0.62;0.00;0.00;0.62;2.60;1.37;;;28.60;30.00;;;;;;2268338;61;20391;-62
2023/08/06 05:33:27;0.00;0.00;0.62;0.00;0.00;0.62;1.80;1.53;;;28.60;30.00;;;;;;2268706;61;20359;-63
2023/08/06 05:36:11;0.00;0.00;0.62;0.00;0.00;0.62;2.07;1.27;;;28.60;30.10;;;;;;2268149;61;20363;-60
2023/08/06 05:38:56;0.00;0.00;0.62;0.00;0.00;0.62;2.10;1.60;;;28.60;30.10;;;;;;2268241;61;20391;-61
2023/08/06 05:41:40;0.00;0.00;0.62;0.00;0.00;0.62;1.70;1.40;;;28.60;30.10;;;;;;2268418;61;20366;-58
2023/08/06 05:44:25;0.00;0.00;0.62;0.00;0.00;0.62;3.23;1.60;;;28.60;30.10;;;;;;2268120;61;20367;-59
2023/08/06 05:47:11;0.00;0.00;0.62;0.00;0.00;0.62;1.97;1.57;;;28.60;30.10;;;;;;2268139;61;20823;-61
2023/08/06 05:49:56;0.00;0.00;0.62;0.00;0.00;0.62;2.23;1.63;;;28.60;30.80;;;;;;2267150;61;20847;-61
2023/08/06 05:52:41;0.00;0.00;0.62;0.00;0.00;0.62;2.10;1.50;;;28.60;30.10;;;;;;2268093;61;20451;-62
2023/08/06 05:55:25;0.00;0.00;0.62;0.00;0.00;0.62;1.87;1.43;;;28.60;30.10;;;;;;2268265;61;20359;-61
2023/08/06 05:58:10;0.00;0.00;0.62;0.00;0.00;0.62;2.13;1.53;;;28.60;30.10;;;;;;2267327;61;20378;-61
2023/08/06 06:00:55;0.00;0.00;0.62;0.00;0.00;0.62;2.33;1.53;;;28.60;30.20;;;;;;2268082;61;20457;-62
2023/08/06 06:03:41;0.00;0.00;0.62;0.00;0.00;0.62;2.20;1.60;;;28.60;30.10;;;;;;2268407;61;20397;-61
2023/08/06 06:06:26;0.00;0.00;0.62;0.00;0.00;0.62;1.70;1.30;;;28.60;30.10;;;;;;2268140;61;20363;-60
2023/08/06 06:09:10;0.00;0.00;0.62;0.00;0.00;0.62;1.90;1.50;;;28.60;30.20;;;;;;2268017;61;20918;-61
2023/08/06 06:11:55;0.00;0.00;0.62;0.00;0.00;0.62;2.00;1.50;;;28.60;30.20;;;;;;2268055;61;20363;-62
2023/08/06 06:14:39;0.00;0.00;0.62;0.00;0.00;0.62;2.00;1.53;;;28.60;30.20;;;;;;2268557;61;20410;-61
2023/08/06 06:17:24;0.00;0.00;0.62;0.00;0.00;0.62;2.03;1.57;;;28.60;30.20;;;;;;2268524;61;20454;-60
2023/08/06 06:20:11;0.00;0.00;0.62;0.00;0.00;0.62;2.50;1.63;;;28.60;30.20;;;;;;2267631;61;20969;-61
2023/08/06 06:22:55;0.00;0.00;0.62;0.00;0.00;0.62;1.90;1.20;;;28.60;30.20;;;;;;2268554;61;20490;-60
2023/08/06 06:25:43;0.00;0.00;0.62;0.00;0.00;0.62;2.20;1.53;;;28.60;30.20;;;;;;2268190;61;20409;-61
2023/08/06 06:28:28;0.00;0.00;0.62;0.00;0.00;0.62;2.00;1.40;;;28.60;30.20;;;;;;2267904;61;20822;-61
2023/08/06 06:31:12;0.00;0.00;0.62;0.00;0.00;0.62;2.27;1.40;;;28.60;30.20;;;;;;2268508;61;20351;-61
2023/08/06 06:33:57;0.00;0.00;0.62;0.00;0.00;0.62;1.97;1.50;;;28.60;30.20;;;;;;2268048;61;20389;-60
2023/08/06 06:36:44;0.00;0.00;0.62;0.00;0.00;0.62;1.90;1.57;;;28.50;30.10;;;;;;2268529;61;20879;-63
2023/08/06 06:39:28;0.00;0.00;0.62;0.00;0.00;0.62;2.10;1.50;;;28.60;30.20;;;;;;2268123;61;20379;-61
2023/08/06 06:42:15;0.00;0.00;0.62;0.00;0.00;0.62;1.90;1.60;;;28.60;30.20;;;;;;2267708;61;20367;-63
2023/08/06 06:45:04;0.00;0.00;0.62;0.00;0.00;0.62;2.30;1.70;;;28.60;30.20;;;;;;2265240;61;20498;-61
2023/08/06 06:47:49;0.00;0.00;0.62;0.00;0.00;0.62;2.20;1.70;;;28.60;30.20;;;;;;2268462;61;20911;-61
2023/08/06 06:50:36;0.00;0.00;0.62;0.00;0.00;0.62;2.10;1.50;;;28.60;30.20;;;;;;2267551;61;20401;-61
2023/08/06 06:53:28;0.00;0.00;0.62;0.00;0.00;0.62;2.10;1.50;;;28.60;30.20;;;;;;2268170;61;20401;-62
2023/08/06 06:56:12;0.00;0.00;0.62;0.00;0.00;0.62;1.87;1.50;;;28.60;30.20;;;;;;2267857;61;20390;-60
2023/08/06 06:58:57;0.00;0.00;0.62;0.00;0.00;0.62;1.83;1.33;;;28.60;30.30;;;;;;2267810;61;20464;-61
2023/08/06 07:01:42;0.00;0.00;0.62;0.00;0.00;0.62;2.20;1.53;;;28.60;30.20;;;;;;2268493;61;20366;-60
2023/08/06 07:04:27;0.00;0.00;0.62;0.00;0.00;0.62;1.83;1.23;;;28.60;30.30;;;;;;2267659;61;20367;-59
2023/08/06 07:07:11;0.00;0.00;0.62;0.00;0.00;0.62;4.40;1.50;;;28.60;30.30;;;;;;2268239;61;20383;-58
2023/08/06 07:09:57;0.00;0.00;0.62;0.00;0.00;0.62;2.00;1.40;;;28.60;30.30;;;;;;2267769;61;20374;-60
2023/08/06 07:12:42;0.00;0.00;0.62;0.00;0.00;0.62;2.33;1.70;;;28.60;30.30;;;;;;2267671;61;20363;-61
2023/08/06 07:15:27;0.00;0.00;0.62;0.00;0.00;0.62;2.13;1.50;;;28.60;30.30;;;;;;2268217;61;20405;-61
2023/08/06 07:18:11;0.00;0.00;0.62;0.00;0.00;0.62;1.90;1.40;;;28.60;30.30;;;;;;2268071;61;20359;-61
2023/08/06 07:20:56;0.00;0.00;0.62;0.00;0.00;0.62;1.40;1.20;;;28.60;30.30;;;;;;2268280;61;21029;-60
2023/08/06 07:23:41;0.00;0.00;0.62;0.00;0.00;0.62;1.83;1.47;;;28.60;30.30;;;;;;2268519;61;20871;-60
2023/08/06 07:26:27;0.00;0.00;0.62;0.00;0.00;0.62;1.67;1.13;;;28.60;30.30;;;;;;2267405;61;20371;-61
2023/08/06 07:29:11;0.00;0.00;0.62;0.00;0.00;0.62;1.67;1.23;;;28.60;30.30;;;;;;2267761;61;20383;-61
2023/08/06 07:31:56;0.00;0.00;0.62;0.00;0.00;0.62;2.33;1.27;;;28.50;30.20;;;;;;2268355;61;21095;-63
2023/08/06 07:34:40;0.00;0.00;0.62;0.00;0.00;0.62;2.10;1.57;;;28.60;30.30;;;;;;2267712;61;20406;-61
2023/08/06 07:37:28;0.00;0.00;0.62;0.00;0.00;0.62;2.13;1.20;;;28.60;30.30;;;;;;2268282;61;20428;-61
2023/08/06 07:40:13;0.00;0.00;0.62;0.00;0.00;0.62;2.10;1.43;;;28.50;30.30;;;;;;2267581;61;20425;-62
2023/08/06 07:42:59;0.00;0.00;0.62;0.00;0.00;0.62;1.77;1.40;;;28.60;30.30;;;;;;2268267;61;20359;-61
2023/08/06 07:45:43;0.00;0.00;0.62;0.00;0.00;0.62;1.77;1.10;;;28.60;30.40;;;;;;2264938;61;20371;-64
2023/08/06 07:48:29;0.00;0.00;0.62;0.00;0.00;0.62;2.00;1.30;;;28.60;30.30;;;;;;2267218;61;20863;-62
2023/08/06 07:51:13;0.00;0.00;0.62;0.00;0.00;0.62;1.80;1.20;;;28.50;30.30;;;;;;2268510;61;20350;-61
2023/08/06 07:53:58;0.00;0.00;0.62;0.00;0.00;0.62;1.77;1.50;;;28.50;30.30;;;;;;2268042;61;20355;-60
2023/08/06 07:56:43;0.00;0.00;0.62;0.00;0.00;0.62;2.17;1.60;;;28.50;30.30;;;;;;2267684;61;20355;-60
2023/08/06 07:59:29;0.00;0.00;0.62;0.00;0.00;0.62;1.90;1.40;;;28.50;30.30;;;;;;2267411;61;20410;-61
2023/08/06 08:02:13;0.00;0.00;0.62;0.00;0.00;0.62;1.90;1.20;;;28.60;30.40;;;;;;2268028;61;20952;-60
2023/08/06 08:04:58;0.00;0.00;0.62;0.00;0.00;0.62;2.93;1.27;;;28.50;30.30;;;;;;2267895;61;20401;-60
2023/08/06 08:07:44;0.00;0.00;0.62;0.00;0.00;0.62;1.80;1.30;;;28.50;30.40;;;;;;2268079;61;20359;-61
2023/08/06 08:10:28;0.00;0.00;0.62;0.00;0.00;0.62;2.00;1.60;;;28.50;30.40;;;;;;2267182;61;20355;-60
2023/08/06 08:13:13;0.00;0.00;0.62;0.00;0.00;0.62;2.13;1.60;;;28.50;30.40;;;;;;2268210;61;20838;-62
2023/08/06 08:15:59;0.00;0.00;0.62;0.00;0.00;0.62;2.90;1.20;;;28.50;30.40;;;;;;2267923;61;20394;-61
2023/08/06 08:18:44;0.00;0.00;0.62;0.00;0.00;0.62;2.10;1.57;;;28.50;30.40;;;;;;2267301;61;20473;-61
2023/08/06 08:21:28;0.00;0.00;0.62;0.00;0.00;0.62;2.40;1.57;;;28.50;30.40;;;;;;2268186;61;20391;-61
2023/08/06 08:24:13;0.00;0.00;0.62;0.00;0.00;0.62;2.23;1.70;;;28.50;30.40;;;;;;2268057;61;20378;-60
2023/08/06 08:26:58;0.00;0.00;0.62;0.00;0.00;0.62;2.13;1.53;;;28.50;30.40;;;;;;2267606;61;20874;-60
2023/08/06 08:29:42;0.00;0.00;0.62;0.00;0.00;0.62;1.83;1.50;;;28.50;30.40;;;;;;2267622;61;20371;-60
2023/08/06 08:32:29;0.00;0.00;0.62;0.00;0.00;0.62;3.50;1.50;;;28.50;30.40;;;;;;2267622;61;20445;-62
2023/08/06 08:35:15;0.00;0.00;0.62;0.00;0.00;0.62;1.97;1.37;;;28.50;30.50;;;;;;2268226;61;20371;-60
2023/08/06 08:38:00;0.00;0.00;0.62;0.00;0.00;0.62;2.13;1.23;;;28.50;30.40;;;;;;2267936;61;20402;-61
2023/08/06 08:40:47;0.00;0.00;0.62;0.00;0.00;0.62;1.60;1.20;;;28.50;30.50;;;;;;2267444;61;20437;-61
2023/08/06 08:43:32;0.00;0.00;0.62;0.00;0.00;0.62;2.20;1.60;;;28.50;30.50;;;;;;2268287;61;20409;-62
2023/08/06 08:46:18;0.00;0.00;0.62;0.00;0.00;0.62;1.80;1.30;;;28.60;30.60;;;;;;2268195;61;20398;-62
2023/08/06 08:49:04;0.00;0.00;0.62;0.00;0.00;0.62;3.10;1.80;;;28.50;30.50;;;;;;2267007;61;20410;-61
2023/08/06 08:51:52;0.00;0.00;0.62;0.00;0.00;0.62;1.80;1.40;;;28.50;30.50;;;;;;2267997;61;20402;-61
2023/08/06 08:54:38;0.00;0.00;0.62;0.00;0.00;0.62;1.70;1.40;;;28.50;30.50;;;;;;2267632;61;20421;-61
2023/08/06 08:57:23;0.00;0.00;0.62;0.00;0.00;0.62;2.00;1.33;;;28.60;30.60;;;;;;2267908;61;20989;-58
2023/08/06 09:00:09;0.00;0.00;0.62;0.00;0.00;0.62;1.90;1.33;;;28.50;30.60;;;;;;2267606;61;20427;-60
2023/08/06 09:02:54;0.00;0.00;0.62;0.00;0.00;0.62;2.10;1.60;;;28.60;30.60;;;;;;2267629;61;20444;-60
2023/08/06 09:05:44;0.00;0.00;0.62;0.00;0.00;0.62;2.47;1.73;;;28.60;30.70;;;;;;2267887;61;20853;-61
2023/08/06 09:08:36;0.00;0.00;0.62;0.00;0.00;0.62;2.03;1.73;;;28.60;30.70;;;;;;2267669;61;20528;-61
2023/08/06 09:11:21;0.00;0.00;0.62;0.00;0.00;0.62;3.10;1.50;;;28.60;30.70;;;;;;2267335;61;20386;-57
2023/08/06 09:14:08;0.00;0.00;0.62;0.00;0.00;0.62;1.90;1.50;;;28.60;30.70;;;;;;2267697;61;20912;-61
2023/08/06 09:16:53;0.00;0.00;0.62;0.00;0.00;0.62;1.80;1.43;;;28.60;30.70;;;;;;2267013;61;20949;-63
2023/08/06 09:19:43;0.00;0.00;0.62;0.00;0.00;0.62;1.80;1.50;;;28.60;30.70;;;;;;2266995;61;20383;-61
2023/08/06 09:22:35;0.00;0.00;0.62;0.00;0.00;0.62;1.70;1.43;;;28.60;30.70;;;;;;2267720;61;20421;-61
2023/08/06 09:25:24;0.00;0.00;0.62;0.00;0.00;0.62;2.60;1.40;;;28.60;30.80;;;;;;2267347;61;20418;-60
2023/08/06 09:28:09;0.00;0.00;0.62;0.00;0.00;0.62;2.07;1.10;;;28.60;30.70;;;;;;2267830;61;20406;-59
2023/08/06 09:30:55;0.00;0.00;0.62;0.00;0.00;0.62;2.10;1.70;;;28.60;30.70;;;;;;2267962;61;20362;-60
2023/08/06 09:33:40;0.00;0.00;0.62;0.00;0.00;0.62;2.30;1.70;;;28.60;30.80;;;;;;2267580;61;20395;-62
2023/08/06 09:36:25;0.00;0.00;0.62;0.00;0.00;0.62;1.60;1.40;;;28.60;30.80;;;;;;2268191;61;20429;-61
2023/08/06 09:39:15;0.00;0.00;0.62;0.00;0.00;0.62;1.67;1.37;;;28.60;30.80;;;;;;2267270;61;20421;-60
2023/08/06 09:42:02;0.00;0.00;0.62;0.00;0.00;0.62;1.90;1.50;;;28.60;30.80;;;;;;2268682;61;20914;-61
2023/08/06 09:44:46;0.00;0.00;0.62;0.00;0.00;0.62;1.90;1.40;;;28.60;30.80;;;;;;2268683;61;20438;-63
2023/08/06 09:47:31;0.00;0.00;0.62;0.00;0.00;0.62;2.00;1.60;;;28.60;30.80;;;;;;2267894;61;20876;-61
2023/08/06 09:50:18;0.00;0.00;0.62;0.00;0.00;0.62;1.90;1.50;;;28.60;30.80;;;;;;2268239;61;20466;-67
2023/08/06 09:53:04;0.00;0.00;0.62;0.00;0.00;0.62;1.80;1.40;;;28.60;30.80;;;;;;2268798;61;20916;-60
2023/08/06 09:55:51;0.00;0.00;0.62;0.00;0.00;0.62;1.67;1.23;;;28.60;30.80;;;;;;2268297;61;20355;-61
2023/08/06 09:58:38;0.00;0.00;0.62;0.00;0.00;0.62;1.60;1.17;;;28.60;30.80;;;;;;2268301;61;20409;-58
2023/08/06 10:01:23;0.00;0.00;0.62;0.00;0.00;0.62;2.03;1.37;;;28.60;30.80;;;;;;2267764;61;20382;-60
2023/08/06 10:04:08;0.00;0.00;0.62;0.00;0.00;0.62;3.40;1.53;;;28.70;30.80;;;;;;2268601;61;20392;-57
2023/08/06 10:06:53;0.00;0.00;0.62;0.00;0.00;0.62;1.97;1.57;;;28.60;30.80;;;;;;2268550;61;20358;-61
2023/08/06 10:09:38;0.00;0.00;0.62;0.00;0.00;0.62;1.70;1.40;;;28.70;31.50;;;;;;2267502;61;20907;-61
2023/08/06 10:12:25;0.00;0.00;0.62;0.00;0.00;0.62;1.80;1.50;;;28.70;30.80;;;;;;2268627;61;20485;-61
2023/08/06 10:15:14;0.00;0.00;0.62;0.00;0.00;0.62;2.00;1.50;;;28.70;30.80;;;;;;2268516;61;20367;-60
2023/08/06 10:18:01;0.00;0.00;0.62;0.00;0.00;0.62;1.70;1.60;;;28.70;30.80;;;;;;2268194;61;20363;-59
2023/08/06 10:20:46;0.00;0.00;0.62;0.00;0.00;0.62;2.80;1.50;;;28.70;30.80;;;;;;2268534;61;20423;-61
2023/08/06 10:23:35;0.00;0.00;0.62;0.00;0.00;0.62;1.93;1.50;;;28.70;30.80;;;;;;2267771;61;20363;-62
2023/08/06 10:26:20;0.00;0.00;0.62;0.00;0.00;0.62;1.73;1.37;;;28.70;30.90;;;;;;2268347;61;20383;-61
2023/08/06 10:29:37;0.00;0.00;0.62;0.00;0.00;0.62;2.80;1.90;;;28.70;30.80;;;;;;2268275;61;20641;-61
2023/08/06 10:32:42;0.00;0.00;0.62;0.00;0.00;0.62;2.03;1.60;;;28.70;30.80;;;;;;2268381;61;20871;-60
2023/08/06 10:35:36;0.00;0.00;0.62;0.00;0.00;0.62;3.20;1.63;;;28.70;30.80;;;;;;2268767;61;20891;-62
2023/08/06 10:38:22;0.00;0.00;0.62;0.00;0.00;0.62;1.83;1.53;;;28.70;30.90;;;;;;2267764;61;20447;-63
2023/08/06 10:41:07;0.00;0.00;0.62;0.00;0.00;0.62;2.00;1.33;;;28.70;30.80;;;;;;2268803;61;20850;-60
2023/08/06 10:43:51;0.00;0.00;0.62;0.00;0.00;0.62;2.73;1.70;;;28.70;30.80;;;;;;2268921;61;20408;-63
2023/08/06 10:46:37;0.00;0.00;0.62;0.00;0.00;0.62;2.90;1.80;;;28.70;30.80;;;;;;2267972;61;20363;-60
2023/08/06 10:49:22;0.00;0.00;0.62;0.00;0.00;0.62;2.07;1.53;;;28.70;30.80;;;;;;2268242;61;20441;-65
2023/08/06 10:52:08;0.00;0.00;0.62;0.00;0.00;0.62;2.10;1.80;;;28.80;30.80;;;;;;2268557;61;20452;-60
2023/08/06 10:54:55;0.00;0.00;0.62;0.00;0.00;0.62;2.10;1.43;;;28.80;30.90;;;;;;2268464;61;20367;-59